createdAt,value
2022-12-14T00:01:35.715Z,-1.40
2022-12-14T00:04:02.642Z,-1.40
2022-12-14T00:06:31.877Z,-1.40
2022-12-14T00:09:01.500Z,-1.40
2022-12-14T00:11:29.051Z,-1.40
2022-12-14T00:14:01.587Z,-1.50
2022-12-14T00:16:30.786Z,-1.40
2022-12-14T00:18:59.640Z,-1.40
2022-12-14T00:21:27.225Z,-1.50
2022-12-14T00:23:55.274Z,-1.50
2022-12-14T00:26:31.452Z,-1.50
2022-12-14T00:29:00.284Z,-1.50
2022-12-14T00:31:27.881Z,-1.50
2022-12-14T00:33:55.499Z,-1.50
2022-12-14T00:36:24.073Z,-1.50
2022-12-14T00:38:50.940Z,-1.50
2022-12-14T00:41:17.837Z,-1.50
2022-12-14T00:43:44.813Z,-1.40
2022-12-14T00:46:16.431Z,-1.50
2022-12-14T00:48:43.394Z,-1.60
2022-12-14T00:51:10.344Z,-1.70
2022-12-14T00:53:37.229Z,-1.80
2022-12-14T00:56:08.247Z,-1.90
2022-12-14T00:58:35.462Z,-1.90
2022-12-14T01:01:05.759Z,-2.00
2022-12-14T01:03:33.680Z,-2.00
2022-12-14T01:06:01.455Z,-2.10
2022-12-14T01:08:35.752Z,-2.10
2022-12-14T01:11:05.809Z,-2.20
2022-12-14T01:13:32.811Z,-2.30
2022-12-14T01:16:08.999Z,-2.30
2022-12-14T01:18:36.985Z,-2.40
2022-12-14T01:21:11.460Z,-2.40
2022-12-14T01:23:38.564Z,-2.50
2022-12-14T01:26:05.450Z,-2.50
2022-12-14T01:28:35.515Z,-2.60
2022-12-14T01:31:14.600Z,-2.60
2022-12-14T01:33:41.852Z,-2.60
2022-12-14T01:36:20.604Z,-2.60
2022-12-14T01:38:48.243Z,-2.60
2022-12-14T01:41:30.395Z,-2.60
2022-12-14T01:43:58.777Z,-2.70
2022-12-14T01:46:40.925Z,-2.80
2022-12-14T01:49:13.984Z,-2.80
2022-12-14T01:51:45.939Z,-2.80
2022-12-14T01:54:14.560Z,-2.80
2022-12-14T01:56:44.444Z,-2.80
2022-12-14T01:59:18.823Z,-2.90
2022-12-14T02:01:46.144Z,-2.90
2022-12-14T02:04:18.070Z,-2.90
2022-12-14T02:06:48.427Z,-2.90
2022-12-14T02:09:21.503Z,-3.00
2022-12-14T02:12:20.625Z,-3.00
2022-12-14T02:14:48.343Z,-3.00
2022-12-14T02:17:17.882Z,-3.00
2022-12-14T02:19:46.880Z,-3.00
2022-12-14T02:22:48.039Z,-3.10
2022-12-14T02:25:39.424Z,-3.00
2022-12-14T02:28:27.974Z,-3.10
2022-12-14T02:31:20.243Z,-3.10
2022-12-14T02:34:12.236Z,-3.10
2022-12-14T02:36:53.066Z,-3.10
2022-12-14T02:39:22.652Z,-3.10
2022-12-14T02:42:01.499Z,-3.10
2022-12-14T02:44:38.116Z,-3.00
2022-12-14T02:47:20.203Z,-3.00
2022-12-14T02:50:09.032Z,-3.00
2022-12-14T02:52:45.065Z,-3.00
2022-12-14T02:55:32.575Z,-2.90
2022-12-14T02:58:14.841Z,-2.90
2022-12-14T03:00:42.509Z,-2.90
2022-12-14T03:03:09.724Z,-2.90
2022-12-14T03:05:36.768Z,-2.90
2022-12-14T03:08:15.824Z,-2.90
2022-12-14T03:10:52.402Z,-2.90
2022-12-14T03:13:31.868Z,-3.00
2022-12-14T03:16:13.441Z,-3.00
2022-12-14T03:18:49.964Z,-3.10
2022-12-14T03:21:22.480Z,-3.20
2022-12-14T03:23:51.737Z,-3.30
2022-12-14T03:26:31.520Z,-3.30
2022-12-14T03:29:02.718Z,-3.40
2022-12-14T03:31:54.082Z,-3.40
2022-12-14T03:34:28.375Z,-3.50
2022-12-14T03:37:15.879Z,-3.50
2022-12-14T03:39:45.316Z,-3.50
2022-12-14T03:42:27.535Z,-3.60
2022-12-14T03:45:09.632Z,-3.60
2022-12-14T03:48:00.171Z,-3.60
2022-12-14T03:51:08.001Z,-3.60
2022-12-14T03:54:04.015Z,-3.70
2022-12-14T03:56:52.941Z,-3.70
2022-12-14T03:59:39.078Z,-3.70
2022-12-14T04:02:14.618Z,-3.80
2022-12-14T04:04:53.470Z,-3.80
2022-12-14T04:07:43.892Z,-3.70
2022-12-14T04:10:37.899Z,-3.60
2022-12-14T04:13:36.088Z,-3.60
2022-12-14T04:16:28.027Z,-3.60
2022-12-14T04:19:01.491Z,-3.70
2022-12-14T04:21:37.242Z,-3.70
2022-12-14T04:24:37.844Z,-3.70
2022-12-14T04:27:25.101Z,-3.70
2022-12-14T04:29:56.936Z,-3.80
2022-12-14T04:32:30.618Z,-3.80
2022-12-14T04:35:20.121Z,-3.90
2022-12-14T04:37:51.538Z,-3.90
2022-12-14T04:40:38.552Z,-4.00
2022-12-14T04:43:11.082Z,-4.00
2022-12-14T04:46:10.833Z,-4.00
2022-12-14T04:49:27.109Z,-4.00
2022-12-14T04:52:06.065Z,-4.00
2022-12-14T04:55:04.294Z,-4.00
2022-12-14T04:57:48.692Z,-4.00
2022-12-14T05:00:16.619Z,-4.00
2022-12-14T05:02:43.604Z,-4.00
2022-12-14T05:05:30.302Z,-4.00
2022-12-14T05:08:02.761Z,-4.00
2022-12-14T05:10:41.526Z,-4.00
2022-12-14T05:13:20.183Z,-4.00
2022-12-14T05:15:51.145Z,-4.00
2022-12-14T05:18:18.640Z,-4.00
2022-12-14T05:20:47.247Z,-4.10
2022-12-14T05:23:14.824Z,-4.10
2022-12-14T05:25:41.772Z,-4.10
2022-12-14T05:28:09.905Z,-4.00
2022-12-14T05:30:37.820Z,-4.00
2022-12-14T05:33:04.861Z,-4.00
2022-12-14T05:35:31.784Z,-4.00
2022-12-14T05:37:58.709Z,-4.00
2022-12-14T05:40:25.680Z,-4.00
2022-12-14T05:42:55.884Z,-4.00
2022-12-14T05:45:23.080Z,-4.00
2022-12-14T05:47:49.963Z,-4.00
2022-12-14T05:50:16.953Z,-4.00
2022-12-14T05:52:43.904Z,-4.10
2022-12-14T05:55:10.921Z,-4.10
2022-12-14T05:57:37.811Z,-4.10
2022-12-14T06:00:05.403Z,-4.20
2022-12-14T06:02:32.337Z,-4.20
2022-12-14T06:04:59.354Z,-4.20
2022-12-14T06:07:28.238Z,-4.20
2022-12-14T06:09:55.494Z,-4.20
2022-12-14T06:12:22.488Z,-4.30
2022-12-14T06:14:49.381Z,-4.30
2022-12-14T06:17:16.327Z,-4.20
2022-12-14T06:19:43.284Z,-4.20
2022-12-14T06:22:17.170Z,-4.20
2022-12-14T06:24:44.120Z,-4.20
2022-12-14T06:27:11.116Z,-4.20
2022-12-14T06:29:37.990Z,-4.20
2022-12-14T06:32:05.234Z,-4.30
2022-12-14T06:34:36.855Z,-4.30
2022-12-14T06:37:06.374Z,-4.40
2022-12-14T06:39:33.360Z,-4.40
2022-12-14T06:42:00.250Z,-4.40
2022-12-14T06:44:27.253Z,-4.40
2022-12-14T06:46:54.332Z,-4.40
2022-12-14T06:49:21.877Z,-4.40
2022-12-14T06:51:49.725Z,-4.40
2022-12-14T06:54:17.818Z,-4.50
2022-12-14T06:56:47.201Z,-4.50
2022-12-14T06:59:15.294Z,-4.50
2022-12-14T07:01:42.510Z,-4.50
2022-12-14T07:04:09.935Z,-4.50
2022-12-14T07:06:39.537Z,-4.50
2022-12-14T07:09:08.442Z,-4.50
2022-12-14T07:11:36.051Z,-4.50
2022-12-14T07:14:07.156Z,-4.50
2022-12-14T07:16:36.967Z,-4.50
2022-12-14T07:19:04.916Z,-4.50
2022-12-14T07:21:32.849Z,-4.50
2022-12-14T07:24:00.828Z,-4.50
2022-12-14T07:26:28.595Z,-4.40
2022-12-14T07:28:58.004Z,-4.40
2022-12-14T07:31:27.441Z,-4.40
2022-12-14T07:33:56.361Z,-4.40
2022-12-14T07:36:25.070Z,-4.30
2022-12-14T07:38:52.724Z,-4.30
2022-12-14T07:41:29.463Z,-4.30
2022-12-14T07:43:57.059Z,-4.30
2022-12-14T07:46:26.561Z,-4.30
2022-12-14T07:48:56.551Z,-4.30
2022-12-14T07:51:27.114Z,-4.30
2022-12-14T07:53:54.679Z,-4.30
2022-12-14T07:56:24.981Z,-4.30
2022-12-14T07:58:52.788Z,-4.30
2022-12-14T08:01:22.535Z,-4.30
2022-12-14T08:03:52.424Z,-4.30
2022-12-14T08:06:21.600Z,-4.20
2022-12-14T08:08:49.252Z,-4.20
2022-12-14T08:11:17.019Z,-4.20
2022-12-14T08:13:44.240Z,-4.10
2022-12-14T08:16:14.129Z,-4.10
2022-12-14T08:18:42.472Z,-4.10
2022-12-14T08:21:11.642Z,-4.10
2022-12-14T08:23:39.190Z,-4.10
2022-12-14T08:26:06.950Z,-4.20
2022-12-14T08:28:35.631Z,-4.20
2022-12-14T08:31:07.719Z,-4.10
2022-12-14T08:33:36.438Z,-4.10
2022-12-14T08:36:08.453Z,-4.00
2022-12-14T08:38:36.344Z,-4.00
2022-12-14T08:41:11.489Z,-3.90
2022-12-14T08:43:39.210Z,-3.80
2022-12-14T08:46:07.432Z,-3.80
2022-12-14T08:48:34.501Z,-3.70
2022-12-14T08:51:03.062Z,-3.70
2022-12-14T08:53:30.471Z,-3.60
2022-12-14T08:55:57.798Z,-3.60
2022-12-14T08:58:25.001Z,-3.50
2022-12-14T09:01:06.431Z,-3.50
2022-12-14T09:03:34.024Z,-3.40
2022-12-14T09:06:05.770Z,-3.40
2022-12-14T09:08:33.032Z,-3.30
2022-12-14T09:11:01.260Z,-3.30
2022-12-14T09:13:28.973Z,-3.20
2022-12-14T09:16:05.391Z,-3.10
2022-12-14T09:18:34.513Z,-2.70
2022-12-14T09:21:02.003Z,-1.60
2022-12-14T09:23:31.046Z,-0.30
2022-12-14T09:26:05.416Z,0.80
2022-12-14T09:28:35.045Z,1.80
2022-12-14T09:31:04.986Z,2.60
2022-12-14T09:33:32.540Z,3.00
2022-12-14T09:36:20.969Z,2.70
2022-12-14T09:38:52.133Z,1.80
2022-12-14T09:41:35.145Z,1.10
2022-12-14T09:44:24.874Z,0.40
2022-12-14T09:47:18.194Z,-0.10
2022-12-14T09:50:07.378Z,-0.50
2022-12-14T09:52:42.824Z,-0.80
2022-12-14T09:55:22.742Z,-1.00
2022-12-14T09:58:12.407Z,-1.10
2022-12-14T10:00:49.640Z,-1.20
2022-12-14T10:03:45.249Z,-1.20
2022-12-14T10:06:40.321Z,-1.00
2022-12-14T10:09:13.787Z,-0.30
2022-12-14T10:11:56.884Z,0.10
2022-12-14T10:14:30.361Z,0.30
2022-12-14T10:17:10.235Z,0.50
2022-12-14T10:19:40.603Z,1.20
2022-12-14T10:22:14.815Z,2.20
2022-12-14T10:25:05.690Z,3.30
2022-12-14T10:28:01.098Z,4.20
2022-12-14T10:30:21.833Z,5.10
2022-12-14T10:33:06.725Z,5.60
2022-12-14T10:35:51.830Z,6.10
2022-12-14T10:38:18.772Z,6.80
2022-12-14T10:40:50.343Z,7.40
2022-12-14T10:43:26.530Z,8.00
2022-12-14T10:46:22.342Z,8.30
2022-12-14T10:49:15.256Z,8.30
2022-12-14T10:51:47.891Z,8.60
2022-12-14T10:54:39.064Z,8.90
2022-12-14T10:57:06.312Z,9.30
2022-12-14T10:59:51.943Z,9.30
2022-12-14T11:02:36.163Z,9.80
2022-12-14T11:05:13.939Z,9.90
2022-12-14T11:07:43.419Z,10.00
2022-12-14T11:10:27.615Z,10.40
2022-12-14T11:12:59.493Z,10.80
2022-12-14T11:15:48.329Z,10.70
2022-12-14T11:18:15.501Z,11.10
2022-12-14T11:20:57.618Z,10.80
2022-12-14T11:23:37.724Z,10.50
2022-12-14T11:26:31.532Z,10.70
2022-12-14T11:29:00.810Z,11.30
2022-12-14T11:31:40.393Z,11.70
2022-12-14T11:34:39.503Z,11.80
2022-12-14T11:37:29.500Z,11.60
2022-12-14T11:40:04.037Z,12.10
2022-12-14T11:42:31.675Z,12.60
2022-12-14T11:45:26.680Z,12.80
2022-12-14T11:48:15.322Z,12.90
2022-12-14T11:50:44.712Z,13.20
2022-12-14T11:53:14.592Z,13.40
2022-12-14T11:56:05.152Z,13.60
2022-12-14T11:58:36.303Z,13.80
2022-12-14T12:01:06.861Z,13.70
2022-12-14T12:03:45.321Z,13.70
2022-12-14T12:06:15.723Z,14.00
2022-12-14T12:08:44.772Z,14.30
2022-12-14T12:11:19.165Z,14.30
2022-12-14T12:13:50.954Z,13.90
2022-12-14T12:16:22.002Z,13.50
2022-12-14T12:19:12.467Z,13.70
2022-12-14T12:21:44.914Z,13.90
2022-12-14T12:25:08.166Z,13.60
2022-12-14T12:27:30.315Z,13.40
2022-12-14T12:30:29.716Z,13.30
2022-12-14T12:33:05.109Z,13.30
2022-12-14T12:35:42.757Z,13.10
2022-12-14T12:38:16.991Z,13.30
2022-12-14T12:40:56.330Z,13.10
2022-12-14T12:43:29.126Z,13.20
2022-12-14T12:46:15.458Z,13.70
2022-12-14T12:48:49.591Z,13.80
2022-12-14T12:51:22.792Z,13.80
2022-12-14T12:54:08.452Z,14.10
2022-12-14T12:56:48.333Z,14.70
2022-12-14T12:59:32.350Z,14.80
2022-12-14T13:02:03.437Z,14.90
2022-12-14T13:04:38.230Z,14.80
2022-12-14T13:07:11.003Z,14.30
2022-12-14T13:09:47.961Z,14.40
2022-12-14T13:12:38.510Z,14.10
2022-12-14T13:15:16.270Z,14.10
2022-12-14T13:17:50.940Z,13.90
2022-12-14T13:20:24.023Z,14.10
2022-12-14T13:22:51.725Z,14.50
2022-12-14T13:25:25.895Z,14.60
2022-12-14T13:28:16.449Z,14.40
2022-12-14T13:30:58.615Z,14.10
2022-12-14T13:33:46.997Z,13.90
2022-12-14T13:36:34.011Z,13.70
2022-12-14T13:39:39.847Z,12.80
2022-12-14T13:42:23.671Z,11.20
2022-12-14T13:45:02.406Z,9.50
2022-12-14T13:47:44.994Z,8.30
2022-12-14T13:50:37.046Z,7.30
2022-12-14T13:53:13.388Z,6.40
2022-12-14T13:55:58.749Z,5.70
2022-12-14T13:58:34.351Z,5.20
2022-12-14T14:01:04.678Z,4.90
2022-12-14T14:03:34.891Z,4.50
2022-12-14T14:06:19.644Z,4.10
2022-12-14T14:08:49.159Z,3.90
2022-12-14T14:11:38.421Z,3.80
2022-12-14T14:14:35.244Z,3.60
2022-12-14T14:17:42.911Z,3.50
2022-12-14T14:20:39.805Z,3.40
2022-12-14T14:23:16.121Z,3.20
2022-12-14T14:25:51.835Z,3.10
2022-12-14T14:28:23.208Z,2.90
2022-12-14T14:30:59.869Z,2.80
2022-12-14T14:33:45.651Z,2.60
2022-12-14T14:36:33.184Z,2.50
2022-12-14T14:39:02.551Z,2.40
2022-12-14T14:41:38.311Z,2.20
2022-12-14T14:44:17.619Z,2.20
2022-12-14T14:46:49.571Z,2.00
2022-12-14T14:49:38.913Z,2.00
2022-12-14T14:52:40.075Z,1.90
2022-12-14T14:55:52.041Z,1.80
2022-12-14T14:58:25.774Z,1.80
2022-12-14T15:01:13.920Z,1.60
2022-12-14T15:03:59.541Z,1.60
2022-12-14T15:06:42.100Z,1.50
2022-12-14T15:09:20.952Z,1.40
2022-12-14T15:11:54.513Z,1.30
2022-12-14T15:14:43.253Z,1.30
2022-12-14T15:17:23.922Z,1.20
2022-12-14T15:19:55.837Z,1.10
2022-12-14T15:22:30.535Z,1.10
2022-12-14T15:25:01.657Z,1.10
2022-12-14T15:27:34.760Z,1.00
2022-12-14T15:30:04.811Z,1.00
2022-12-14T15:32:32.682Z,1.00
2022-12-14T15:35:05.021Z,0.90
2022-12-14T15:37:41.060Z,0.90
2022-12-14T15:40:13.159Z,0.80
2022-12-14T15:42:48.291Z,0.70
2022-12-14T15:45:21.924Z,0.60
2022-12-14T15:47:49.198Z,0.60
2022-12-14T15:50:32.761Z,0.60
2022-12-14T15:53:13.179Z,0.50
2022-12-14T15:55:43.953Z,0.50
2022-12-14T15:58:29.185Z,0.40
2022-12-14T16:01:10.198Z,0.30
2022-12-14T16:03:41.507Z,0.30
2022-12-14T16:06:11.322Z,0.20
2022-12-14T16:08:45.637Z,0.20
2022-12-14T16:11:23.258Z,0.10
2022-12-14T16:13:50.402Z,0.10
2022-12-14T16:16:17.923Z,0.00
2022-12-14T16:18:50.607Z,0.00
2022-12-14T16:21:34.628Z,0.00
2022-12-14T16:24:24.428Z,0.00
2022-12-14T16:26:59.335Z,0.00
2022-12-14T16:29:33.723Z,0.00
2022-12-14T16:32:01.856Z,-0.10
2022-12-14T16:34:29.493Z,-0.10
2022-12-14T16:37:31.075Z,-0.20
2022-12-14T16:39:49.846Z,-0.20
2022-12-14T16:42:25.145Z,-0.30
2022-12-14T16:44:54.033Z,-0.30
2022-12-14T16:47:20.965Z,-0.40
2022-12-14T16:49:52.044Z,-0.40
2022-12-14T16:52:26.900Z,-0.40
2022-12-14T16:55:14.265Z,-0.40
2022-12-14T16:57:55.713Z,-0.50
2022-12-14T17:00:30.237Z,-0.50
2022-12-14T17:03:18.503Z,-0.50
2022-12-14T17:05:52.080Z,-0.50
2022-12-14T17:08:20.457Z,-0.60
2022-12-14T17:10:47.401Z,-0.60
2022-12-14T17:13:14.410Z,-0.60
2022-12-14T17:16:01.762Z,-0.60
2022-12-14T17:18:37.687Z,-0.60
2022-12-14T17:21:05.674Z,-0.70
2022-12-14T17:23:35.126Z,-0.70
2022-12-14T17:26:02.010Z,-0.70
2022-12-14T17:28:32.790Z,-0.70
2022-12-14T17:31:01.788Z,-0.70
2022-12-14T17:33:30.218Z,-0.70
2022-12-14T17:35:57.428Z,-0.80
2022-12-14T17:38:24.574Z,-0.80
2022-12-14T17:40:53.779Z,-0.80
2022-12-14T17:43:24.572Z,-0.90
2022-12-14T17:45:52.711Z,-0.80
2022-12-14T17:48:19.936Z,-0.90
2022-12-14T17:50:49.832Z,-0.90
2022-12-14T17:53:20.867Z,-0.90
2022-12-14T17:55:47.836Z,-0.90
2022-12-14T17:58:14.713Z,-0.90
2022-12-14T18:01:00.140Z,-1.00
2022-12-14T18:03:32.263Z,-1.00
2022-12-14T18:06:00.377Z,-1.00
2022-12-14T18:08:27.734Z,-1.00
2022-12-14T18:11:10.215Z,-1.00
2022-12-14T18:13:38.911Z,-1.00
2022-12-14T18:16:06.342Z,-1.00
2022-12-14T18:18:33.312Z,-1.00
2022-12-14T18:21:02.554Z,-1.00
2022-12-14T18:23:31.213Z,-1.00
2022-12-14T18:26:00.092Z,-1.00
2022-12-14T18:28:26.998Z,-1.00
2022-12-14T18:31:00.499Z,-1.00
2022-12-14T18:33:28.532Z,-1.00
2022-12-14T18:35:57.074Z,-1.00
2022-12-14T18:38:24.728Z,-0.90
2022-12-14T18:40:53.896Z,-0.90
2022-12-14T18:43:27.422Z,-0.90
2022-12-14T18:45:55.900Z,-0.90
2022-12-14T18:48:23.763Z,-0.90
2022-12-14T18:50:52.868Z,-0.90
2022-12-14T18:53:22.709Z,-1.00
2022-12-14T18:55:50.043Z,-1.00
2022-12-14T18:58:18.358Z,-1.00
2022-12-14T19:00:45.931Z,-1.10
2022-12-14T19:03:15.382Z,-1.20
2022-12-14T19:05:44.290Z,-1.20
2022-12-14T19:08:12.161Z,-1.30
2022-12-14T19:10:42.561Z,-1.30
2022-12-14T19:13:24.775Z,-1.40
2022-12-14T19:15:53.016Z,-1.40
2022-12-14T19:18:20.976Z,-1.40
2022-12-14T19:20:49.708Z,-1.40
2022-12-14T19:23:19.159Z,-1.50
2022-12-14T19:25:47.040Z,-1.50
2022-12-14T19:28:31.452Z,-1.50
2022-12-14T19:30:59.526Z,-1.50
2022-12-14T19:33:26.866Z,-1.50
2022-12-14T19:35:56.862Z,-1.50
2022-12-14T19:38:28.401Z,-1.50
2022-12-14T19:41:20.581Z,-1.60
2022-12-14T19:43:48.501Z,-1.50
2022-12-14T19:46:16.340Z,-1.60
2022-12-14T19:48:43.800Z,-1.60
2022-12-14T19:51:12.706Z,-1.50
2022-12-14T19:53:42.609Z,-1.60
2022-12-14T19:56:10.486Z,-1.50
2022-12-14T19:58:37.458Z,-1.60
2022-12-14T20:01:11.979Z,-1.50
2022-12-14T20:03:39.515Z,-1.50
2022-12-14T20:06:07.287Z,-1.50
2022-12-14T20:08:35.461Z,-1.50
2022-12-14T20:11:07.726Z,-1.50
2022-12-14T20:13:35.051Z,-1.50
2022-12-14T20:16:02.565Z,-1.50
2022-12-14T20:18:31.735Z,-1.50
2022-12-14T20:21:07.614Z,-1.50
2022-12-14T20:23:36.056Z,-1.50
2022-12-14T20:26:05.686Z,-1.50
2022-12-14T20:28:33.110Z,-1.40
2022-12-14T20:31:01.281Z,-1.40
2022-12-14T20:33:30.561Z,-1.40
2022-12-14T20:35:58.672Z,-1.40
2022-12-14T20:38:25.978Z,-1.40
2022-12-14T20:40:53.682Z,-1.40
2022-12-14T20:43:20.743Z,-1.40
2022-12-14T20:45:47.635Z,-1.40
2022-12-14T20:48:14.585Z,-1.40
2022-12-14T20:50:43.540Z,-1.40
2022-12-14T20:53:10.599Z,-1.40
2022-12-14T20:55:37.493Z,-1.40
2022-12-14T20:58:04.486Z,-1.40
2022-12-14T21:00:31.753Z,-1.50
2022-12-14T21:02:58.910Z,-1.50
2022-12-14T21:05:26.070Z,-1.50
2022-12-14T21:07:52.959Z,-1.50
2022-12-14T21:10:19.829Z,-1.50
2022-12-14T21:12:49.755Z,-1.50
2022-12-14T21:15:16.844Z,-1.50
2022-12-14T21:17:43.840Z,-1.50
2022-12-14T21:20:11.482Z,-1.50
2022-12-14T21:22:39.605Z,-1.50
2022-12-14T21:25:07.820Z,-1.50
2022-12-14T21:27:38.517Z,-1.50
2022-12-14T21:30:10.941Z,-1.40
2022-12-14T21:32:38.738Z,-1.40
2022-12-14T21:35:06.690Z,-1.40
2022-12-14T21:37:33.997Z,-1.30
2022-12-14T21:40:03.906Z,-1.30
2022-12-14T21:42:30.970Z,-1.20
2022-12-14T21:44:57.923Z,-1.20
2022-12-14T21:47:27.800Z,-1.10
2022-12-14T21:49:55.737Z,-1.10
2022-12-14T21:52:25.571Z,-1.00
2022-12-14T21:54:52.664Z,-1.00
2022-12-14T21:57:49.505Z,-1.00
2022-12-14T22:00:17.591Z,-1.00
2022-12-14T22:02:44.827Z,-1.00
2022-12-14T22:05:12.139Z,-1.00
2022-12-14T22:07:39.066Z,-0.90
2022-12-14T22:10:06.566Z,-0.90
2022-12-14T22:12:33.505Z,-0.90
2022-12-14T22:15:02.371Z,-0.80
2022-12-14T22:17:29.460Z,-0.80
2022-12-14T22:19:56.477Z,-0.80
2022-12-14T22:22:23.397Z,-0.80
2022-12-14T22:24:51.434Z,-0.80
2022-12-14T22:27:18.717Z,-0.80
2022-12-14T22:29:45.625Z,-0.80
2022-12-14T22:32:13.564Z,-0.70
2022-12-14T22:34:40.822Z,-0.70
2022-12-14T22:37:07.728Z,-0.70
2022-12-14T22:39:35.547Z,-0.70
2022-12-14T22:42:02.584Z,-0.70
2022-12-14T22:44:29.592Z,-0.70
2022-12-14T22:46:56.505Z,-0.70
2022-12-14T22:49:24.343Z,-0.60
2022-12-14T22:51:51.237Z,-0.60
2022-12-14T22:54:23.367Z,-0.50
2022-12-14T22:57:22.606Z,-0.50
2022-12-14T23:00:07.579Z,-0.40
2022-12-14T23:02:34.621Z,-0.40
2022-12-14T23:05:01.646Z,-0.40
2022-12-14T23:07:28.560Z,-0.40
2022-12-14T23:10:14.049Z,-0.40
2022-12-14T23:12:59.328Z,-0.40
2022-12-14T23:15:44.909Z,-0.40
2022-12-14T23:18:30.899Z,-0.30
2022-12-14T23:21:16.420Z,-0.30
2022-12-14T23:24:04.640Z,-0.30
2022-12-14T23:26:50.277Z,-0.30
2022-12-14T23:29:35.990Z,-0.30
2022-12-14T23:32:21.825Z,-0.30
2022-12-14T23:35:07.129Z,-0.30
2022-12-14T23:37:52.671Z,-0.30
2022-12-14T23:40:38.374Z,-0.30
2022-12-14T23:43:30.864Z,-0.30
2022-12-14T23:46:16.438Z,-0.40
2022-12-14T23:49:02.103Z,-0.50
2022-12-14T23:51:47.829Z,-0.60
2022-12-14T23:54:33.558Z,-0.60
2022-12-14T23:57:18.830Z,-0.60
